Terminal Aerodrome Forecast
Issued by NWS

Home | Current Version | Previous Version | Text Only | Print | Product List | Glossary On
Versions: 1 2 3 4 5 6 7 8 9 10 11 12
000
FTUS42 KTBW 262320
TAFRSW
TAF
KRSW 262320Z 2700/2724 13007KT P6SM VCSH BKN060
     FM270200 07005KT P6SM SCT060
     FM270400 09005KT P6SM FEW050
     FM271400 08006KT P6SM FEW040
     FM271800 08005KT P6SM SCT060
     FM272100 31008KT P6SM SCT060=

USA.gov is the U.S. government's official web portal to all federal, state and local government web resources and services.